Time;durP1;ratioP1;P1;durP2;ratioP2;P2;SDS_P1;SDS_P2;PMS_P1;PMS_P2;Temp;Humidity;BMP_temperature;BMP_pressure;BME280_temperature;BME280_humidity;BME280_pressure;Samples;Min_cycle;Max_cycle;Signal;HPM_P1;HPM_P2
2023/12/11 00:02:26;;;;;;;41.50;5.35;;;;;;;8.61;100.00;99822.06;6246730;23;20008;-91
2023/12/11 00:04:52;;;;;;;31.45;4.43;;;;;;;8.53;100.00;99825.06;6220495;23;20303;-91
2023/12/11 00:07:17;;;;;;;34.27;3.93;;;;;;;8.47;100.00;99826.78;6220035;23;20020;-90
2023/12/11 00:09:43;;;;;;;31.27;4.53;;;;;;;8.49;100.00;99827.41;6194690;23;20005;-90
2023/12/11 00:12:08;;;;;;;40.03;4.47;;;;;;;8.44;100.00;99827.25;6194636;23;20008;-89
2023/12/11 00:14:34;;;;;;;31.90;3.87;;;;;;;8.43;100.00;99833.69;6219235;23;20435;-88
2023/12/11 00:16:59;;;;;;;35.92;3.72;;;;;;;8.45;100.00;99834.31;6219836;23;20327;-90
2023/12/11 00:19:25;;;;;;;37.87;4.17;;;;;;;8.41;100.00;99836.63;6270489;22;20015;-90
2023/12/11 00:21:50;;;;;;;38.13;4.13;;;;;;;8.49;100.00;99834.69;6219652;23;20069;-90
2023/12/11 00:24:16;;;;;;;41.60;4.77;;;;;;;8.50;100.00;99831.75;6194349;23;20051;-90
2023/12/11 00:26:41;;;;;;;34.50;4.60;;;;;;;8.52;100.00;99834.22;6210977;22;20077;-90
2023/12/11 00:29:07;;;;;;;37.97;5.47;;;;;;;8.51;100.00;99822.59;6250795;22;20007;-90
2023/12/11 00:31:33;;;;;;;35.88;3.90;;;;;;;8.54;100.00;99818.63;6275792;22;20012;-90
2023/12/11 00:33:58;;;;;;;40.43;4.43;;;;;;;8.60;100.00;99828.53;6277182;22;20010;-90
2023/12/11 00:36:24;;;;;;;27.40;3.43;;;;;;;8.60;100.00;99813.13;6276717;22;20035;-90
2023/12/11 00:38:49;;;;;;;38.47;4.72;;;;;;;8.68;100.00;99830.94;6250133;22;20011;-90
2023/12/11 00:41:17;;;;;;;40.57;4.30;;;;;;;8.72;100.00;99810.47;6249912;22;20012;-91
2023/12/11 00:43:43;;;;;;;40.40;4.68;;;;;;;8.74;100.00;99819.19;6250686;22;20011;-90
2023/12/11 00:46:19;;;;;;;32.60;4.33;;;;;;;8.74;100.00;99815.63;6249620;22;20501;-91
2023/12/11 00:48:44;;;;;;;24.95;3.55;;;;;;;8.74;100.00;99834.56;6249656;22;20105;-90
2023/12/11 00:51:17;;;;;;;38.60;5.03;;;;;;;8.81;100.00;99812.88;6225702;22;20016;-90
2023/12/11 00:53:43;;;;;;;34.70;4.30;;;;;;;8.85;100.00;99822.19;6249893;22;20015;-90
2023/12/11 00:56:11;;;;;;;31.23;4.43;;;;;;;8.88;100.00;99803.59;6250765;22;20494;-90
2023/12/11 00:58:37;;;;;;;30.27;4.47;;;;;;;8.91;100.00;99813.13;6249837;22;20008;-91
2023/12/11 01:01:02;;;;;;;42.73;4.77;;;;;;;8.93;100.00;99794.78;6225704;22;20448;-90
2023/12/11 01:03:28;;;;;;;34.50;3.73;;;;;;;8.86;100.00;99796.75;6199232;22;20342;-90
2023/12/11 01:05:53;;;;;;;45.55;5.63;;;;;;;8.82;100.00;99799.09;6226548;22;20254;-91
2023/12/11 01:08:18;;;;;;;38.67;4.40;;;;;;;8.84;100.00;99785.34;6227528;22;20016;-91
2023/12/11 01:10:44;;;;;;;39.57;4.83;;;;;;;8.87;100.00;99791.16;6252524;22;20023;-91
2023/12/11 01:13:09;;;;;;;39.03;5.10;;;;;;;8.84;100.00;99786.16;6201070;22;20004;-91
2023/12/11 01:15:35;;;;;;;32.70;4.73;;;;;;;8.83;100.00;99783.69;6226682;22;20091;-91
2023/12/11 01:18:00;;;;;;;36.60;4.60;;;;;;;8.86;100.00;99780.53;6252201;22;20273;-90
2023/12/11 01:20:26;;;;;;;33.80;5.00;;;;;;;8.88;100.00;99791.97;6201423;22;20034;-91
2023/12/11 01:22:51;;;;;;;44.40;5.37;;;;;;;8.90;100.00;99779.84;6251970;22;20012;-91
2023/12/11 01:25:19;;;;;;;36.07;4.60;;;;;;;8.89;100.00;99778.19;6231806;22;20075;-91
2023/12/11 01:27:44;;;;;;;39.95;4.50;;;;;;;8.90;100.00;99779.84;6255741;22;20091;-90
2023/12/11 01:30:10;;;;;;;40.20;4.83;;;;;;;8.94;100.00;99772.09;6252094;22;20086;-90
2023/12/11 01:32:38;;;;;;;39.95;4.20;;;;;;;8.96;100.00;99772.69;6278569;22;20422;-90
2023/12/11 01:35:03;;;;;;;30.05;3.47;;;;;;;9.00;100.00;99768.47;6251582;22;20004;-89
2023/12/11 01:37:29;;;;;;;28.23;4.27;;;;;;;8.98;100.00;99767.06;6252570;22;20042;-90
2023/12/11 01:39:57;;;;;;;28.43;3.93;;;;;;;8.95;100.00;99777.28;6279732;22;20058;-90
2023/12/11 01:42:23;;;;;;;31.05;4.53;;;;;;;9.06;100.00;99761.31;6278611;22;20007;-90
2023/12/11 01:44:48;;;;;;;39.23;4.67;;;;;;;9.12;100.00;99768.47;6226649;22;20493;-90
2023/12/11 01:47:14;;;;;;;33.80;5.23;;;;;;;9.17;100.00;99757.81;6226044;22;20342;-90
2023/12/11 01:49:39;;;;;;;31.15;3.85;;;;;;;9.23;100.00;99759.56;6252209;22;20057;-90
2023/12/11 01:52:07;;;;;;;34.67;5.87;;;;;;;9.27;100.00;99759.91;6200697;22;20016;-91
2023/12/11 01:54:34;;;;;;;26.35;4.13;;;;;;;9.37;100.00;99741.22;6251919;22;20007;-90
2023/12/11 01:56:59;;;;;;;32.08;3.92;;;;;;;9.35;100.00;99750.66;6278574;22;20000;-91
2023/12/11 01:59:26;;;;;;;33.78;4.22;;;;;;;9.31;100.00;99747.56;6252477;22;20070;-90
2023/12/11 02:01:51;;;;;;;33.55;3.97;;;;;;;9.34;100.00;99738.16;6251175;22;20012;-90
2023/12/11 02:04:17;;;;;;;34.75;4.63;;;;;;;9.33;100.00;99731.09;6226136;22;20098;-90
2023/12/11 02:06:42;;;;;;;37.43;4.00;;;;;;;9.36;100.00;99714.38;6278900;22;20425;-91
2023/12/11 02:09:11;;;;;;;31.45;4.20;;;;;;;9.37;100.00;99719.56;6251766;22;20091;-91
2023/12/11 02:11:36;;;;;;;31.25;3.80;;;;;;;9.37;100.00;99719.56;6251869;22;20019;-91
2023/12/11 02:14:02;;;;;;;22.75;2.78;;;;;;;9.43;100.00;99712.38;6252073;22;20007;-91
2023/12/11 02:16:28;;;;;;;27.83;4.07;;;;;;;9.38;100.00;99717.69;6276913;22;20082;-91
2023/12/11 02:18:53;;;;;;;34.20;4.80;;;;;;;9.35;100.00;99737.94;6252482;22;20015;-91
2023/12/11 02:21:19;;;;;;;30.87;4.33;;;;;;;9.34;100.00;99727.34;6202372;22;20322;-91
2023/12/11 02:24:34;;;;;;;29.17;3.90;;;;;;;9.28;100.00;99732.63;6251414;22;20012;-91
2023/12/11 02:27:00;;;;;;;36.78;4.57;;;;;;;9.25;100.00;99727.66;6130596;23;20025;-91
2023/12/11 02:29:26;;;;;;;33.13;3.97;;;;;;;9.26;100.00;99718.50;6202652;22;20022;-91
2023/12/11 02:31:51;;;;;;;37.53;5.07;;;;;;;9.26;100.00;99721.22;6251276;22;20035;-91
2023/12/11 02:34:16;;;;;;;34.00;4.37;;;;;;;9.27;100.00;99713.91;6226967;22;20022;-91
2023/12/11 02:36:42;;;;;;;27.02;4.47;;;;;;;9.28;100.00;99696.63;6251116;22;20014;-91
2023/12/11 02:39:07;;;;;;;36.70;4.70;;;;;;;9.25;100.00;99699.78;6226646;22;20430;-91
2023/12/11 02:41:33;;;;;;;26.90;3.27;;;;;;;9.24;100.00;99698.13;6201067;22;20008;-91
2023/12/11 02:43:59;;;;;;;31.03;4.00;;;;;;;9.17;100.00;99692.84;6201120;22;20011;-91
2023/12/11 02:46:27;;;;;;;26.67;3.55;;;;;;;9.16;100.00;99683.06;6250927;22;20043;-91
2023/12/11 02:48:52;;;;;;;32.30;3.70;;;;;;;9.21;100.00;99694.03;6226299;22;20010;-91
2023/12/11 02:51:18;;;;;;;35.63;4.50;;;;;;;9.15;100.00;99688.72;6251042;22;20338;-91
2023/12/11 02:53:48;;;;;;;23.15;3.35;;;;;;;9.15;100.00;99681.41;6251121;22;20043;-91
2023/12/11 02:56:13;;;;;;;29.40;3.80;;;;;;;9.19;100.00;99687.22;6276421;22;20011;-91
2023/12/11 02:58:39;;;;;;;25.55;3.35;;;;;;;9.11;100.00;99662.13;6200627;22;20018;-91
2023/12/11 03:01:04;;;;;;;27.50;2.93;;;;;;;8.85;100.00;99647.16;6277917;22;20318;-91
2023/12/11 03:03:29;;;;;;;24.80;3.10;;;;;;;8.70;100.00;99663.03;6251161;22;20012;-91
2023/12/11 03:05:56;;;;;;;27.00;3.55;;;;;;;8.72;100.00;99647.38;6226284;22;20008;-91
2023/12/11 03:08:22;;;;;;;23.25;3.33;;;;;;;8.66;100.00;99653.72;6226371;22;20007;-92
2023/12/11 03:10:47;;;;;;;26.65;3.55;;;;;;;8.66;100.00;99651.03;6250693;22;20336;-91
2023/12/11 03:13:13;;;;;;;33.60;4.55;;;;;;;8.70;100.00;99639.50;6278404;22;20003;-91
2023/12/11 03:15:38;;;;;;;29.20;4.20;;;;;;;8.71;100.00;99643.03;6250773;22;20065;-91
2023/12/11 03:18:03;;;;;;;28.60;3.43;;;;;;;8.74;100.00;99645.25;6250744;22;20008;-91
2023/12/11 03:20:29;;;;;;;22.97;2.70;;;;;;;8.67;100.00;99629.16;6224859;22;20065;-91
2023/12/11 03:22:54;;;;;;;32.03;5.37;;;;;;;8.72;100.00;99615.75;6225106;22;20438;-90
2023/12/11 03:25:20;;;;;;;27.80;3.28;;;;;;;8.72;100.00;99623.03;6251640;22;20257;-91
2023/12/11 03:27:45;;;;;;;18.07;2.33;;;;;;;8.87;100.00;99631.56;6276660;22;20071;-91
2023/12/11 03:30:11;;;;;;;31.07;3.00;;;;;;;8.89;100.00;99647.53;6250543;22;20464;-91
2023/12/11 03:32:37;;;;;;;24.25;3.30;;;;;;;8.87;100.00;99639.66;6225661;22;20065;-90
2023/12/11 03:35:03;;;;;;;21.63;3.37;;;;;;;8.85;100.00;99647.16;6250474;22;20065;-90
2023/12/11 03:37:28;;;;;;;21.40;3.00;;;;;;;8.88;100.00;99645.88;6251305;22;20019;-91
2023/12/11 03:39:54;;;;;;;22.70;3.47;;;;;;;8.84;100.00;99633.88;6233249;22;20015;-91
2023/12/11 03:42:19;;;;;;;30.07;3.57;;;;;;;8.85;100.00;99627.41;6233332;22;20020;-91
2023/12/11 03:44:45;;;;;;;24.75;2.83;;;;;;;8.89;100.00;99647.53;6227805;22;20011;-90
2023/12/11 03:47:10;;;;;;;21.23;3.10;;;;;;;8.90;100.00;99658.13;6225398;22;20023;-90
2023/12/11 03:49:36;;;;;;;22.60;2.83;;;;;;;8.79;100.00;99642.69;6250468;22;20090;-89
2023/12/11 03:52:01;;;;;;;27.27;3.35;;;;;;;8.48;100.00;99633.00;6250000;22;20003;-89
2023/12/11 03:54:27;;;;;;;22.25;3.25;;;;;;;8.32;100.00;99635.25;6250157;22;20008;-89
2023/12/11 03:56:52;;;;;;;29.30;3.53;;;;;;;8.15;100.00;99635.09;6275292;22;20010;-90
2023/12/11 03:59:17;;;;;;;30.83;3.87;;;;;;;8.13;100.00;99629.09;6224762;22;20153;-89
2023/12/11 04:01:45;;;;;;;23.52;3.00;;;;;;;8.12;100.00;99632.03;6250477;22;20437;-89
2023/12/11 04:04:14;;;;;;;25.73;2.57;;;;;;;8.09;100.00;99641.44;6250379;22;20022;-90
2023/12/11 04:06:40;;;;;;;24.95;2.90;;;;;;;8.04;100.00;99633.16;6249986;22;20016;-90
2023/12/11 04:09:05;;;;;;;32.70;3.80;;;;;;;8.02;100.00;99643.38;6250486;22;20322;-89
2023/12/11 04:11:31;;;;;;;32.57;4.00;;;;;;;8.02;100.00;99629.88;6224663;22;20468;-90
2023/12/11 04:13:56;;;;;;;32.83;3.03;;;;;;;8.07;100.00;99636.25;6250290;22;20094;-87
2023/12/11 04:16:21;;;;;;;25.33;4.18;;;;;;;8.08;100.00;99640.59;6225674;22;20016;-87
2023/12/11 04:18:47;;;;;;;33.93;3.40;;;;;;;8.02;100.00;99635.28;6250047;22;20004;-88
2023/12/11 04:21:12;;;;;;;31.53;3.80;;;;;;;7.99;100.00;99636.56;6249887;22;20432;-88
2023/12/11 04:23:38;;;;;;;33.53;3.47;;;;;;;8.01;100.00;99645.25;6249829;22;20015;-89
2023/12/11 04:26:03;;;;;;;32.73;3.53;;;;;;;7.97;100.00;99643.22;6249964;22;20043;-89
2023/12/11 04:28:29;;;;;;;39.33;3.95;;;;;;;7.99;100.00;99641.97;6250120;22;20288;-88
2023/12/11 04:30:54;;;;;;;36.83;3.20;;;;;;;7.98;100.00;99615.19;6276886;22;20050;-88
2023/12/11 04:33:20;;;;;;;37.55;3.67;;;;;;;7.93;100.00;99618.56;6224244;22;20018;-88
2023/12/11 04:35:46;;;;;;;34.45;3.85;;;;;;;7.92;100.00;99606.09;6250024;22;20415;-88
2023/12/11 04:38:14;;;;;;;30.45;3.58;;;;;;;7.89;100.00;99609.28;6277046;22;20007;-88
2023/12/11 04:40:40;;;;;;;35.88;3.95;;;;;;;7.88;100.00;99616.56;6278974;22;20122;-88
2023/12/11 04:43:05;;;;;;;30.40;3.80;;;;;;;7.86;100.00;99610.53;6201522;22;20046;-88
2023/12/11 04:45:31;;;;;;;41.37;3.30;;;;;;;7.85;100.00;99610.78;6252558;22;20018;-88
2023/12/11 04:47:56;;;;;;;30.53;3.43;;;;;;;7.85;100.00;99611.63;6201254;22;20094;-88
2023/12/11 04:50:24;;;;;;;32.93;3.40;;;;;;;7.86;100.00;99609.72;6252379;22;20062;-88
2023/12/11 04:52:50;;;;;;;30.80;3.60;;;;;;;7.82;100.00;99612.03;6251689;22;20019;-88
2023/12/11 04:55:18;;;;;;;42.77;4.43;;;;;;;7.82;100.00;99609.34;6278497;22;20014;-88
2023/12/11 04:57:44;;;;;;;36.58;3.33;;;;;;;7.83;100.00;99593.97;6278786;22;20008;-88
2023/12/11 05:00:10;;;;;;;36.37;3.60;;;;;;;7.83;100.00;99602.91;6251368;22;20448;-88
2023/12/11 05:02:35;;;;;;;25.02;3.50;;;;;;;7.88;100.00;99616.56;6251532;22;20507;-87
2023/12/11 05:05:00;;;;;;;38.73;3.93;;;;;;;7.93;100.00;99593.41;6251138;22;20098;-86
2023/12/11 05:07:26;;;;;;;33.58;3.38;;;;;;;7.94;100.00;99609.41;6251545;22;20020;-87
2023/12/11 05:09:51;;;;;;;35.60;4.10;;;;;;;7.94;100.00;99598.59;6226292;22;20027;-87
2023/12/11 05:12:17;;;;;;;33.03;3.70;;;;;;;7.89;100.00;99609.28;6226495;22;20429;-87
2023/12/11 05:14:42;;;;;;;34.43;3.47;;;;;;;7.88;100.00;99616.56;6277384;22;20464;-87
2023/12/11 05:17:08;;;;;;;31.83;3.13;;;;;;;7.94;100.00;99619.38;6252033;22;20007;-88
2023/12/11 05:19:35;;;;;;;34.37;4.67;;;;;;;7.92;100.00;99616.91;6251406;22;20007;-87
2023/12/11 05:22:01;;;;;;;33.08;4.45;;;;;;;7.96;100.00;99614.56;6251394;22;20015;-87
2023/12/11 05:24:27;;;;;;;37.33;4.22;;;;;;;7.98;100.00;99628.69;6252413;22;20058;-88
2023/12/11 05:26:56;;;;;;;30.80;3.95;;;;;;;7.96;100.00;99622.66;6201056;22;20019;-88
2023/12/11 05:29:21;;;;;;;33.67;5.18;;;;;;;7.96;100.00;99618.09;6251318;22;20065;-87
2023/12/11 05:31:47;;;;;;;41.30;4.70;;;;;;;7.98;100.00;99624.09;6251285;22;20016;-88
2023/12/11 05:34:12;;;;;;;40.27;3.87;;;;;;;7.96;100.00;99618.09;6252341;22;20008;-88
2023/12/11 05:36:38;;;;;;;43.83;4.70;;;;;;;7.98;100.00;99623.28;6251494;22;20462;-88
2023/12/11 05:39:03;;;;;;;33.72;3.97;;;;;;;7.99;100.00;99623.06;6200896;22;20357;-87
2023/12/11 05:41:29;;;;;;;49.50;4.77;;;;;;;7.93;100.00;99618.56;6226305;22;20039;-88
2023/12/11 05:43:57;;;;;;;36.17;3.50;;;;;;;7.96;100.00;99606.47;6226347;22;20007;-88
2023/12/11 05:46:23;;;;;;;34.10;3.85;;;;;;;7.93;100.00;99609.63;6226808;22;20371;-88
2023/12/11 05:48:49;;;;;;;33.57;4.10;;;;;;;7.89;100.00;99614.66;6251075;22;20008;-88
2023/12/11 05:51:14;;;;;;;42.47;3.92;;;;;;;7.90;100.00;99610.94;6200426;22;20277;-88
2023/12/11 05:53:40;;;;;;;33.80;3.85;;;;;;;7.93;100.00;99609.63;6251421;22;20333;-87
2023/12/11 05:56:05;;;;;;;31.27;3.72;;;;;;;7.94;100.00;99603.19;6225887;22;20430;-87
2023/12/11 05:58:31;;;;;;;35.60;3.83;;;;;;;7.88;100.00;99597.66;6250581;22;20011;-88
2023/12/11 06:00:57;;;;;;;37.20;4.00;;;;;;;7.91;100.00;99593.66;6278642;22;20074;-88
2023/12/11 06:03:25;;;;;;;26.70;4.40;;;;;;;7.94;100.00;99609.41;6278870;22;20007;-88
2023/12/11 06:05:57;;;;;;;38.65;4.13;;;;;;;7.92;100.00;99600.72;6227251;22;20023;-88
2023/12/11 06:08:24;;;;;;;36.25;3.72;;;;;;;7.88;100.00;99594.94;6251282;22;20448;-88
2023/12/11 06:10:50;;;;;;;27.17;4.37;;;;;;;7.96;100.00;99592.97;6250907;22;20366;-87
2023/12/11 06:13:15;;;;;;;40.15;4.47;;;;;;;7.90;100.00;99603.63;6200379;22;20089;-86
2023/12/11 06:15:41;;;;;;;34.57;5.00;;;;;;;7.89;100.00;99593.06;6251138;22;20088;-87
2023/12/11 06:18:07;;;;;;;32.90;3.87;;;;;;;7.87;100.00;99627.59;6250500;22;20464;-87
2023/12/11 06:20:32;;;;;;;43.00;4.57;;;;;;;7.84;100.00;99609.94;6250601;22;20082;-86
2023/12/11 06:23:00;;;;;;;42.90;4.83;;;;;;;7.88;100.00;99616.56;6225550;22;20050;-87
2023/12/11 06:25:26;;;;;;;41.70;4.35;;;;;;;7.84;100.00;99618.06;6251177;22;20057;-86
2023/12/11 06:27:51;;;;;;;38.23;5.23;;;;;;;7.84;100.00;99617.22;6251007;22;20028;-87
2023/12/11 06:30:17;;;;;;;38.10;4.53;;;;;;;7.81;100.00;99617.66;6225916;22;20023;-88
2023/12/11 06:32:43;;;;;;;32.23;4.03;;;;;;;7.80;100.00;99610.66;6278934;22;20000;-92
2023/12/11 06:35:08;;;;;;;23.85;3.30;;;;;;;7.80;100.00;99641.16;6251385;22;20723;-93
2023/12/11 06:37:34;;;;;;;41.07;3.87;;;;;;;7.79;100.00;99600.88;6226243;22;20083;-92
2023/12/11 06:39:59;;;;;;;43.77;4.63;;;;;;;7.84;100.00;99626.16;6251433;22;20015;-93
2023/12/11 06:42:27;;;;;;;46.47;5.57;;;;;;;7.78;100.00;99623.53;6228579;22;20025;-96
2023/12/11 06:44:53;;;;;;;29.95;3.88;;;;;;;7.76;100.00;99607.56;6277761;22;20234;-91
2023/12/11 06:47:19;;;;;;;33.88;4.53;;;;;;;7.78;100.00;99610.03;6251245;22;20015;-91
2023/12/11 06:49:46;;;;;;;33.37;3.80;;;;;;;7.81;100.00;99612.28;6254194;22;20027;-91
2023/12/11 06:52:12;;;;;;;34.05;4.40;;;;;;;7.77;100.00;99616.50;6226097;22;20027;-90
2023/12/11 06:54:40;;;;;;;28.25;3.45;;;;;;;7.71;100.00;99626.31;6251036;22;20012;-91
2023/12/11 06:57:09;;;;;;;29.80;3.65;;;;;;;7.68;100.00;99619.50;6250731;22;20042;-89
2023/12/11 06:59:34;;;;;;;27.50;4.00;;;;;;;7.78;100.00;99642.44;6250433;22;20008;-88
2023/12/11 07:02:00;;;;;;;37.77;5.03;;;;;;;7.72;100.00;99636.91;6249855;22;20512;-88
2023/12/11 07:04:26;;;;;;;27.73;3.35;;;;;;;7.72;100.00;99623.41;6251498;22;20010;-87
2023/12/11 07:06:52;;;;;;;31.77;3.47;;;;;;;7.75;100.00;99651.81;6249701;22;20004;-89
2023/12/11 07:09:19;;;;;;;31.13;3.05;;;;;;;7.70;100.00;99638.16;6250229;22;20016;-89
2023/12/11 07:11:47;;;;;;;23.88;3.03;;;;;;;7.72;100.00;99627.94;6249825;22;20077;-88
2023/12/11 07:14:13;;;;;;;26.92;3.58;;;;;;;7.69;100.00;99639.22;6249708;22;20008;-88
2023/12/11 07:16:39;;;;;;;23.60;3.33;;;;;;;7.79;100.00;99636.81;6250921;22;20015;-89
2023/12/11 07:19:11;;;;;;;28.77;3.73;;;;;;;7.78;100.00;99640.56;6253004;22;20008;-89
2023/12/11 07:21:43;;;;;;;24.67;2.65;;;;;;;7.80;100.00;99630.34;6250811;22;20007;-89
2023/12/11 07:24:09;;;;;;;24.00;3.25;;;;;;;7.89;100.00;99647.06;6250712;22;20014;-89
2023/12/11 07:26:40;;;;;;;27.00;3.20;;;;;;;7.84;100.00;99655.88;6240648;22;20051;-90
2023/12/11 07:29:08;;;;;;;21.67;2.72;;;;;;;7.83;100.00;99656.09;6221190;23;20054;-90
2023/12/11 07:31:33;;;;;;;14.50;2.30;;;;;;;7.88;100.00;99648.13;6222197;23;20036;-90
2023/12/11 07:34:02;;;;;;;30.52;3.80;;;;;;;7.82;100.00;99674.16;6245099;23;20019;-90
2023/12/11 07:36:28;;;;;;;24.63;2.13;;;;;;;7.81;100.00;99687.88;6246722;23;20011;-90
2023/12/11 07:38:53;;;;;;;32.05;3.60;;;;;;;7.79;100.00;99687.28;6220500;23;20004;-91
2023/12/11 07:41:22;;;;;;;28.97;2.87;;;;;;;7.78;100.00;99699.13;6247839;23;20362;-91
2023/12/11 07:43:48;;;;;;;23.58;2.65;;;;;;;7.74;100.00;99693.38;6247320;23;20003;-91
2023/12/11 07:46:21;;;;;;;22.27;2.53;;;;;;;7.72;100.00;99690.06;6220834;23;20016;-91
2023/12/11 07:48:57;;;;;;;;;;;;;;;;;;;;;
2023/12/11 07:51:26;;;;;;;24.52;3.53;;;;;;;7.70;100.00;99705.66;6247545;23;20431;-90
2023/12/11 07:53:57;;;;;;;28.08;2.47;;;;;;;7.68;100.00;99702.38;6219582;23;20075;-90
2023/12/11 07:56:24;;;;;;;25.95;3.15;;;;;;;7.68;100.00;99708.59;6245390;23;20008;-90
2023/12/11 07:58:50;;;;;;;28.25;3.33;;;;;;;7.66;100.00;99726.06;6219705;23;20502;-89
2023/12/11 08:01:18;;;;;;;27.45;3.03;;;;;;;7.65;100.00;99706.34;6220250;23;20019;-90
2023/12/11 08:03:44;;;;;;;23.98;2.40;;;;;;;7.64;100.00;99738.97;6220043;23;20012;-89
2023/12/11 08:06:10;;;;;;;27.00;2.83;;;;;;;7.60;100.00;99735.06;6220520;23;20362;-89
2023/12/11 08:08:45;;;;;;;27.27;3.33;;;;;;;7.61;100.00;99734.00;6246216;23;20062;-90
2023/12/11 08:11:28;;;;;;;22.67;3.08;;;;;;;7.65;100.00;99738.75;6199952;23;20308;-89
2023/12/11 08:13:54;;;;;;;21.42;2.30;;;;;;;7.63;100.00;99729.19;6248151;23;20051;-90
2023/12/11 08:16:21;;;;;;;20.83;2.57;;;;;;;7.60;100.00;99737.75;6223574;23;20331;-92
2023/12/11 08:18:48;;;;;;;27.83;4.15;;;;;;;7.59;100.00;99769.31;6249608;23;20032;-91
2023/12/11 08:21:23;;;;;;;17.58;2.25;;;;;;;7.62;100.00;99743.75;6222818;23;20016;-92
2023/12/11 08:23:51;;;;;;;26.30;3.00;;;;;;;7.65;100.00;99756.81;6175008;23;20019;-91
2023/12/11 08:26:20;;;;;;;24.45;2.35;;;;;;;7.64;100.00;99764.06;6229913;22;20016;-91
2023/12/11 08:28:48;;;;;;;20.25;2.50;;;;;;;7.65;100.00;99768.44;6252822;22;20015;-94
2023/12/11 08:31:16;;;;;;;19.30;2.03;;;;;;;7.70;100.00;99770.47;6252651;22;20026;-90
2023/12/11 08:33:42;;;;;;;19.08;2.28;;;;;;;7.75;100.00;99767.09;6252299;22;20011;-89
2023/12/11 08:36:08;;;;;;;20.77;2.63;;;;;;;7.73;100.00;99770.81;6280081;22;20034;-89
2023/12/11 08:38:34;;;;;;;23.55;2.80;;;;;;;7.82;100.00;99778.66;6251866;22;20061;-89
2023/12/11 08:40:59;;;;;;;22.30;2.47;;;;;;;7.88;100.00;99769.66;6252116;22;20015;-90
2023/12/11 08:43:27;;;;;;;30.33;2.80;;;;;;;7.92;100.00;99772.75;6252575;22;20043;-89
2023/12/11 08:45:56;;;;;;;16.07;1.80;;;;;;;7.97;100.00;99792.63;6251868;22;20014;-89
2023/12/11 08:48:21;;;;;;;20.13;2.28;;;;;;;8.01;100.00;99796.53;6252581;22;20026;-89
2023/12/11 08:50:52;;;;;;;19.00;2.67;;;;;;;8.04;100.00;99828.47;6251854;22;20008;-89
2023/12/11 08:53:19;;;;;;;24.40;2.55;;;;;;;8.11;100.00;99806.00;6252867;22;20326;-89
2023/12/11 08:55:46;;;;;;;15.35;2.53;;;;;;;8.05;100.00;99819.34;6251818;22;20081;-90
2023/12/11 08:58:17;;;;;;;18.17;1.80;;;;;;;7.99;100.00;99819.44;6252187;22;20004;-90
2023/12/11 09:00:46;;;;;;;21.42;2.40;;;;;;;7.93;100.00;99834.66;6226769;22;20441;-90
2023/12/11 09:03:11;;;;;;;18.07;2.67;;;;;;;7.92;100.00;99857.28;6252732;22;20015;-89
2023/12/11 09:05:39;;;;;;;25.35;3.17;;;;;;;7.86;100.00;99858.19;6201177;22;20011;-89
2023/12/11 09:08:05;;;;;;;17.05;2.30;;;;;;;7.80;100.00;99862.59;6226905;22;20015;-88
2023/12/11 09:10:32;;;;;;;17.85;2.28;;;;;;;7.77;100.00;99891.94;6201284;22;20015;-86
2023/12/11 09:12:59;;;;;;;30.67;3.25;;;;;;;7.69;100.00;99893.00;6252441;22;20046;-86
2023/12/11 09:15:24;;;;;;;23.63;2.53;;;;;;;7.67;100.00;99876.22;6279150;22;20058;-85
2023/12/11 09:17:50;;;;;;;24.67;2.45;;;;;;;7.65;100.00;99881.81;6227122;22;20140;-86
2023/12/11 09:20:18;;;;;;;26.37;2.73;;;;;;;7.64;100.00;99892.84;6225823;22;20283;-85
2023/12/11 09:22:43;;;;;;;17.77;2.70;;;;;;;7.57;100.00;99898.28;6251685;22;20012;-86
2023/12/11 09:25:09;;;;;;;24.90;2.03;;;;;;;7.59;100.00;99911.56;6200455;22;20338;-87
2023/12/11 09:27:37;;;;;;;23.23;3.00;;;;;;;7.59;100.00;99890.81;6278841;22;20099;-87
2023/12/11 09:30:09;;;;;;;21.90;2.33;;;;;;;7.59;100.00;99907.00;6278474;22;20062;-86
2023/12/11 09:32:37;;;;;;;14.20;1.80;;;;;;;7.53;100.00;99911.41;6226936;22;20019;-86
2023/12/11 09:35:04;;;;;;;19.98;1.92;;;;;;;7.51;100.00;99923.47;6251507;22;20012;-87
2023/12/11 09:37:29;;;;;;;11.48;1.48;;;;;;;7.49;100.00;99928.25;6250958;22;20501;-87
2023/12/11 09:39:55;;;;;;;16.57;2.03;;;;;;;7.53;100.00;99943.78;6225594;22;20182;-88
2023/12/11 09:42:22;;;;;;;16.20;1.50;;;;;;;7.62;100.00;99938.97;6251173;22;20015;-88
2023/12/11 09:44:51;;;;;;;16.25;1.80;;;;;;;7.72;100.00;99922.25;6226380;22;20011;-87
2023/12/11 09:47:23;;;;;;;15.68;1.75;;;;;;;7.72;100.00;99943.84;6201883;22;20019;-87
2023/12/11 09:49:49;;;;;;;18.98;2.78;;;;;;;7.79;100.00;99941.13;6252004;22;20513;-87
2023/12/11 09:52:14;;;;;;;10.50;1.90;;;;;;;7.85;100.00;99951.91;6251178;22;20031;-87
2023/12/11 09:54:40;;;;;;;14.53;2.07;;;;;;;7.90;100.00;99959.34;6250843;22;20015;-87
2023/12/11 09:57:11;;;;;;;15.15;2.22;;;;;;;7.99;100.00;99960.72;6251328;22;20007;-89
2023/12/11 09:59:38;;;;;;;20.42;1.70;;;;;;;8.10;100.00;99979.94;6252141;22;20007;-87
2023/12/11 10:02:11;;;;;;;15.43;2.63;;;;;;;8.18;100.00;99971.56;6278254;22;20003;-88
2023/12/11 10:04:36;;;;;;;15.30;2.20;;;;;;;8.26;100.00;99987.50;6251864;22;20023;-88
2023/12/11 10:07:04;;;;;;;15.90;2.22;;;;;;;8.35;100.00;99990.75;6250989;22;20441;-88
2023/12/11 10:09:33;;;;;;;15.23;2.35;;;;;;;8.38;100.00;100003.81;6201328;22;20007;-87
2023/12/11 10:12:06;;;;;;;17.10;2.10;;;;;;;8.35;100.00;99986.16;6226827;22;20011;-88
2023/12/11 10:14:37;;;;;;;18.20;2.08;;;;;;;8.45;100.00;100001.09;6251272;22;20053;-88
2023/12/11 10:17:18;;;;;;;13.60;2.03;;;;;;;8.45;100.00;99987.59;6225696;22;20047;-89
2023/12/11 10:19:46;;;;;;;17.48;1.85;;;;;;;8.55;100.00;99993.31;6251096;22;20081;-90
2023/12/11 10:22:32;;;;;;;9.75;1.52;;;;;;;8.61;100.00;99997.81;6278566;22;20018;-90
2023/12/11 10:25:00;;;;;;;15.87;1.93;;;;;;;8.65;100.00;100011.72;6250333;22;20010;-91
2023/12/11 10:27:26;;;;;;;11.60;1.55;;;;;;;8.71;100.00;99989.19;6250736;22;20026;-91
2023/12/11 10:30:12;;;;;;;12.15;1.50;;;;;;;8.76;100.00;100032.63;6250454;22;20026;-89
2023/12/11 10:32:47;;;;;;;18.63;1.65;;;;;;;8.69;100.00;100018.34;6250637;22;20287;-92
2023/12/11 10:35:25;;;;;;;13.25;1.60;;;;;;;8.60;100.00;100015.91;6251141;22;20098;-89
2023/12/11 10:37:50;;;;;;;14.67;1.80;;;;;;;8.64;100.00;100019.00;6250669;22;20078;-89
2023/12/11 10:40:16;;;;;;;13.82;1.80;;;;;;;8.67;100.00;100047.50;6250719;22;20374;-89
2023/12/11 10:42:42;;;;;;;12.77;1.37;;;;;;;8.66;100.00;100033.13;6278485;22;20003;-89
2023/12/11 10:45:10;;;;;;;17.43;2.17;;;;;;;8.63;100.00;100032.75;6251069;22;20020;-89
2023/12/11 10:47:36;;;;;;;9.60;1.80;;;;;;;8.65;100.00;100038.75;6250858;22;20007;-90
2023/12/11 10:50:08;;;;;;;8.10;1.05;;;;;;;8.78;100.00;100058.41;6250736;22;20497;-90
2023/12/11 10:52:34;;;;;;;9.65;1.20;;;;;;;8.94;100.00;100043.44;6251629;22;20018;-88
2023/12/11 10:55:07;;;;;;;11.20;1.00;;;;;;;9.16;100.00;100066.56;6251068;22;20087;-88
2023/12/11 10:57:33;;;;;;;17.33;1.85;;;;;;;9.20;100.00;100078.59;6251554;22;20418;-88
2023/12/11 10:59:59;;;;;;;8.83;1.50;;;;;;;9.19;100.00;100061.50;6250262;22;20022;-87
2023/12/11 11:02:28;;;;;;;15.40;2.03;;;;;;;9.19;100.00;100055.28;6250628;22;20246;-87
2023/12/11 11:04:59;;;;;;;9.43;1.20;;;;;;;9.28;100.00;100059.34;6277777;22;20011;-87
2023/12/11 11:07:32;;;;;;;10.70;1.40;;;;;;;9.34;100.00;100069.25;6250708;22;20008;-87
2023/12/11 11:10:23;;;;;;;11.33;1.50;;;;;;;9.36;100.00;100061.75;6250212;22;20004;-87
2023/12/11 11:13:20;;;;;;;13.23;1.75;;;;;;;9.40;100.00;100070.22;6250568;22;20005;-87
2023/12/11 11:15:53;;;;;;;6.50;0.80;;;;;;;9.41;100.00;100094.38;6251073;22;20008;-88
2023/12/11 11:18:19;;;;;;;11.40;1.45;;;;;;;9.38;100.00;100077.75;6251325;22;20476;-88
2023/12/11 11:21:16;;;;;;;11.23;1.50;;;;;;;9.31;100.00;100085.94;6277856;22;19999;-88
2023/12/11 11:23:47;;;;;;;12.13;1.52;;;;;;;9.22;100.00;100090.00;6251157;22;20254;-88
2023/12/11 11:26:36;;;;;;;10.18;1.65;;;;;;;9.17;100.00;100106.09;6251023;22;20043;-88
2023/12/11 11:29:05;;;;;;;8.70;1.08;;;;;;;9.12;100.00;100106.75;6261246;22;20034;-88